createdAt,value
2018-06-14T00:00:22.770Z,15.78
2018-06-14T00:02:50.325Z,15.81
2018-06-14T00:05:17.903Z,15.73
2018-06-14T00:07:45.433Z,15.73
2018-06-14T00:10:13.027Z,15.85
2018-06-14T00:12:40.986Z,15.80
2018-06-14T00:15:09.575Z,15.76
2018-06-14T00:17:37.130Z,15.72
2018-06-14T00:20:05.136Z,15.75
2018-06-14T00:22:32.737Z,15.74
2018-06-14T00:25:00.309Z,15.72
2018-06-14T00:27:27.823Z,15.75
2018-06-14T00:29:55.875Z,15.68
2018-06-14T00:32:23.582Z,15.72
2018-06-14T00:34:51.106Z,15.75
2018-06-14T00:37:18.634Z,15.84
2018-06-14T00:39:46.181Z,15.94
2018-06-14T00:42:13.717Z,16.02
2018-06-14T00:44:41.342Z,15.94
2018-06-14T00:47:08.898Z,16.01
2018-06-14T00:49:36.414Z,15.95
2018-06-14T00:52:03.999Z,15.90
2018-06-14T00:54:31.551Z,15.90
2018-06-14T00:57:10.402Z,15.98
2018-06-14T00:59:37.950Z,15.94
2018-06-14T01:02:05.588Z,15.94
2018-06-14T01:04:33.134Z,15.95
2018-06-14T01:07:00.714Z,15.90
2018-06-14T01:09:28.226Z,16.00
2018-06-14T01:11:55.771Z,15.95
2018-06-14T01:14:23.318Z,15.90
2018-06-14T01:16:50.835Z,15.77
2018-06-14T01:19:18.382Z,15.86
2018-06-14T01:21:45.953Z,15.80
2018-06-14T01:24:13.519Z,15.78
2018-06-14T01:26:41.074Z,15.77
2018-06-14T01:29:08.645Z,15.76
2018-06-14T01:31:36.170Z,15.65
2018-06-14T01:34:03.682Z,15.69
2018-06-14T01:36:31.233Z,15.73
2018-06-14T01:38:58.740Z,15.84
2018-06-14T01:41:26.248Z,15.79
2018-06-14T01:43:53.838Z,15.75
2018-06-14T01:46:21.370Z,15.62
2018-06-14T01:48:48.899Z,15.66
2018-06-14T01:51:16.439Z,15.71
2018-06-14T01:53:43.970Z,15.53
2018-06-14T01:56:11.522Z,15.56
2018-06-14T01:58:39.077Z,15.64
2018-06-14T02:01:06.577Z,15.64
2018-06-14T02:03:34.090Z,15.65
2018-06-14T02:06:01.650Z,15.66
2018-06-14T02:08:29.226Z,15.73
2018-06-14T02:10:56.768Z,15.77
2018-06-14T02:13:24.301Z,15.78
2018-06-14T02:15:51.834Z,15.82
2018-06-14T02:18:19.477Z,15.83
2018-06-14T02:20:47.023Z,15.88
2018-06-14T02:23:14.521Z,15.82
2018-06-14T02:25:42.042Z,15.71
2018-06-14T02:28:09.622Z,15.67
2018-06-14T02:30:37.141Z,15.67
2018-06-14T02:33:04.870Z,15.54
2018-06-14T02:35:32.423Z,15.59
2018-06-14T02:38:00.014Z,15.61
2018-06-14T02:40:27.556Z,15.61
2018-06-14T02:42:55.178Z,15.62
2018-06-14T02:45:22.709Z,15.54
2018-06-14T02:47:50.228Z,15.54
2018-06-14T02:50:17.766Z,15.54
2018-06-14T02:52:45.295Z,15.60
2018-06-14T02:55:12.833Z,15.50
2018-06-14T02:57:40.417Z,15.43
2018-06-14T03:00:08.016Z,15.53
2018-06-14T03:02:35.554Z,15.56
2018-06-14T03:05:03.267Z,15.60
2018-06-14T03:07:34.912Z,15.67
2018-06-14T03:10:03.525Z,15.68
2018-06-14T03:12:31.254Z,15.77
2018-06-14T03:14:58.785Z,15.63
2018-06-14T03:17:26.353Z,15.64
2018-06-14T03:19:53.926Z,15.63
2018-06-14T03:22:22.795Z,15.59
2018-06-14T03:24:50.456Z,15.68
2018-06-14T03:27:17.977Z,15.75
2018-06-14T03:29:45.821Z,15.77
2018-06-14T03:32:13.641Z,15.86
2018-06-14T03:34:41.177Z,15.88
2018-06-14T03:37:09.494Z,15.87
2018-06-14T03:39:37.103Z,15.77
2018-06-14T03:42:05.642Z,15.67
2018-06-14T03:44:34.138Z,15.61
2018-06-14T03:47:02.119Z,15.51
2018-06-14T03:49:29.622Z,15.50
2018-06-14T03:51:57.144Z,15.60
2018-06-14T03:54:24.705Z,15.65
2018-06-14T03:56:52.240Z,15.68
2018-06-14T03:59:19.750Z,15.61
2018-06-14T04:01:47.302Z,15.65
2018-06-14T04:04:14.811Z,15.62
2018-06-14T04:06:42.323Z,15.58
2018-06-14T04:09:11.094Z,15.63
2018-06-14T04:11:38.751Z,15.62
2018-06-14T04:14:06.558Z,15.70
2018-06-14T04:16:34.550Z,15.79
2018-06-14T04:19:02.070Z,15.93
2018-06-14T04:21:29.594Z,15.91
2018-06-14T04:23:57.155Z,15.76
2018-06-14T04:26:24.778Z,15.71
2018-06-14T04:28:52.410Z,15.69
2018-06-14T04:31:19.986Z,15.72
2018-06-14T04:33:47.515Z,15.82
2018-06-14T04:36:15.100Z,15.86
2018-06-14T04:38:42.886Z,15.75
2018-06-14T04:41:10.426Z,15.73
2018-06-14T04:43:37.937Z,15.74
2018-06-14T04:46:05.762Z,15.80
2018-06-14T04:48:33.290Z,15.78
2018-06-14T04:51:00.800Z,15.84
2018-06-14T04:53:28.377Z,15.85
2018-06-14T04:55:56.002Z,15.80
2018-06-14T04:58:23.534Z,15.86
2018-06-14T05:00:51.123Z,15.91
2018-06-14T05:03:18.654Z,15.97
2018-06-14T05:05:46.243Z,16.04
2018-06-14T05:08:18.605Z,15.93
2018-06-14T05:10:46.120Z,15.94
2018-06-14T05:13:13.672Z,15.94
2018-06-14T05:15:41.369Z,15.96
2018-06-14T05:18:08.941Z,16.04
2018-06-14T05:20:36.462Z,16.11
2018-06-14T05:23:04.030Z,16.24
2018-06-14T05:25:31.570Z,16.29
2018-06-14T05:27:59.079Z,16.31
2018-06-14T05:30:26.629Z,16.34
2018-06-14T05:32:54.143Z,16.42
2018-06-14T05:35:21.680Z,16.46
2018-06-14T05:37:49.493Z,16.44
2018-06-14T05:40:17.010Z,16.57
2018-06-14T05:42:44.534Z,16.58
2018-06-14T05:45:12.086Z,16.60
2018-06-14T05:47:39.641Z,16.71
2018-06-14T05:50:07.175Z,16.63
2018-06-14T05:52:34.750Z,16.71
2018-06-14T05:55:02.310Z,16.75
2018-06-14T05:57:29.846Z,16.63
2018-06-14T05:59:57.397Z,16.65
2018-06-14T06:02:24.935Z,16.71
2018-06-14T06:04:52.534Z,16.81
2018-06-14T06:07:20.086Z,16.71
2018-06-14T06:09:47.614Z,16.86
2018-06-14T06:12:15.207Z,17.03
2018-06-14T06:14:42.767Z,17.18
2018-06-14T06:17:10.342Z,17.25
2018-06-14T06:19:37.878Z,16.99
2018-06-14T06:22:05.488Z,16.95
2018-06-14T06:24:33.011Z,16.78
2018-06-14T06:27:00.926Z,16.84
2018-06-14T06:29:28.501Z,16.66
2018-06-14T06:31:56.014Z,16.56
2018-06-14T06:34:23.522Z,16.38
2018-06-14T06:36:51.098Z,16.38
2018-06-14T06:39:18.661Z,16.46
2018-06-14T06:41:46.188Z,16.48
2018-06-14T06:44:13.756Z,16.58
2018-06-14T06:46:41.301Z,16.70
2018-06-14T06:49:08.818Z,16.85
2018-06-14T06:51:36.370Z,16.87
2018-06-14T06:54:03.897Z,16.91
2018-06-14T06:56:31.422Z,16.94
2018-06-14T06:58:59.004Z,16.98
2018-06-14T07:01:26.536Z,16.98
2018-06-14T07:03:54.059Z,17.05
2018-06-14T07:06:21.636Z,17.05
2018-06-14T07:08:49.541Z,17.17
2018-06-14T07:11:17.094Z,17.10
2018-06-14T07:13:44.649Z,17.16
2018-06-14T07:16:12.211Z,17.13
2018-06-14T07:18:39.761Z,17.14
2018-06-14T07:21:07.335Z,17.27
2018-06-14T07:23:34.874Z,17.30
2018-06-14T07:26:02.394Z,17.35
2018-06-14T07:28:29.960Z,17.46
2018-06-14T07:30:57.514Z,17.34
2018-06-14T07:33:25.050Z,17.44
2018-06-14T07:35:52.595Z,17.67
2018-06-14T07:38:20.118Z,17.88
2018-06-14T07:40:47.666Z,17.98
2018-06-14T07:43:15.231Z,18.13
2018-06-14T07:45:42.749Z,17.96
2018-06-14T07:48:10.256Z,17.95
2018-06-14T07:50:37.809Z,18.21
2018-06-14T07:53:05.325Z,18.47
2018-06-14T07:55:32.865Z,18.78
2018-06-14T07:58:00.410Z,18.96
2018-06-14T08:00:27.926Z,19.02
2018-06-14T08:02:55.450Z,19.10
2018-06-14T08:05:23.031Z,19.26
2018-06-14T08:07:50.571Z,19.15
2018-06-14T08:10:18.091Z,19.30
2018-06-14T08:12:45.654Z,19.46
2018-06-14T08:15:13.211Z,19.60
2018-06-14T08:17:40.742Z,19.88
2018-06-14T08:20:08.308Z,19.91
2018-06-14T08:22:35.830Z,19.94
2018-06-14T08:25:03.386Z,20.06
2018-06-14T08:27:30.951Z,20.00
2018-06-14T08:29:58.470Z,19.99
2018-06-14T08:32:26.007Z,19.89
2018-06-14T08:34:53.546Z,19.68
2018-06-14T08:37:25.637Z,19.49
2018-06-14T08:39:53.179Z,19.53
2018-06-14T08:42:20.726Z,19.59
2018-06-14T08:44:48.280Z,19.88
2018-06-14T08:47:15.831Z,19.95
2018-06-14T08:49:43.345Z,19.92
2018-06-14T08:52:10.874Z,20.07
2018-06-14T08:54:38.419Z,19.93
2018-06-14T08:57:06.015Z,19.74
2018-06-14T08:59:33.522Z,19.49
2018-06-14T09:02:01.075Z,19.13
2018-06-14T09:04:28.638Z,18.90
2018-06-14T09:06:56.182Z,18.78
2018-06-14T09:09:23.749Z,18.57
2018-06-14T09:11:51.314Z,18.40
2018-06-14T09:14:18.906Z,18.46
2018-06-14T09:16:46.426Z,18.67
2018-06-14T09:19:13.958Z,18.78
2018-06-14T09:21:41.492Z,18.84
2018-06-14T09:24:09.050Z,18.87
2018-06-14T09:29:10.938Z,18.68
2018-06-14T09:31:38.570Z,18.86
2018-06-14T09:34:06.139Z,19.09
2018-06-14T09:36:34.282Z,19.03
2018-06-14T09:39:01.898Z,19.22
2018-06-14T09:41:29.453Z,19.41
2018-06-14T09:43:57.010Z,19.38
2018-06-14T09:46:24.642Z,19.62
2018-06-14T09:48:57.617Z,19.82
2018-06-14T09:51:25.183Z,20.23
2018-06-14T09:53:52.734Z,20.41
2018-06-14T09:56:20.302Z,20.46
2018-06-14T09:58:47.811Z,20.88
2018-06-14T10:01:15.360Z,21.39
2018-06-14T10:03:42.935Z,22.22
2018-06-14T10:06:10.448Z,23.27
2018-06-14T10:08:37.966Z,23.44
2018-06-14T10:11:05.582Z,22.94
2018-06-14T10:13:33.094Z,22.93
2018-06-14T10:16:00.781Z,22.36
2018-06-14T10:18:28.326Z,22.17
2018-06-14T10:20:55.903Z,22.21
2018-06-14T10:23:23.413Z,22.41
2018-06-14T10:25:51.127Z,22.18
2018-06-14T10:28:18.666Z,22.15
2018-06-14T10:30:46.194Z,22.03
2018-06-14T10:33:13.818Z,22.27
2018-06-14T10:35:41.326Z,21.91
2018-06-14T10:38:09.077Z,21.95
2018-06-14T10:40:36.647Z,21.98
2018-06-14T10:43:05.390Z,21.88
2018-06-14T10:45:33.562Z,22.39
2018-06-14T10:48:01.451Z,22.84
2018-06-14T10:50:28.962Z,23.40
2018-06-14T10:52:56.504Z,25.16
2018-06-14T10:55:24.085Z,26.42
2018-06-14T10:57:51.658Z,26.87
2018-06-14T11:00:19.291Z,26.61
2018-06-14T11:02:46.845Z,27.14
2018-06-14T11:05:14.377Z,28.30
2018-06-14T11:07:41.898Z,28.87
2018-06-14T11:10:09.431Z,27.66
2018-06-14T11:12:36.954Z,26.90
2018-06-14T11:15:04.538Z,26.44
2018-06-14T11:17:32.078Z,26.73
2018-06-14T11:19:59.594Z,27.84
2018-06-14T11:22:27.086Z,26.70
2018-06-14T11:24:59.335Z,25.63
2018-06-14T11:27:26.881Z,25.64
2018-06-14T11:29:54.442Z,26.93
2018-06-14T11:32:22.009Z,26.89
2018-06-14T11:34:49.575Z,26.14
2018-06-14T11:37:17.166Z,25.61
2018-06-14T11:39:44.720Z,25.53
2018-06-14T11:42:12.250Z,26.65
2018-06-14T11:44:39.786Z,28.17
2018-06-14T11:47:07.334Z,29.35
2018-06-14T11:49:34.841Z,30.16
2018-06-14T11:52:02.346Z,31.24
2018-06-14T11:54:30.143Z,31.81
2018-06-14T11:56:57.679Z,31.28
2018-06-14T11:59:25.223Z,30.90
2018-06-14T12:01:52.830Z,30.42
2018-06-14T12:04:20.354Z,31.23
2018-06-14T12:06:47.869Z,31.70
2018-06-14T12:09:15.474Z,32.31
2018-06-14T12:11:43.021Z,32.18
2018-06-14T12:14:10.555Z,31.29
2018-06-14T12:16:38.094Z,32.46
2018-06-14T12:19:05.602Z,31.68
2018-06-14T12:21:33.107Z,30.01
2018-06-14T12:24:00.679Z,30.67
2018-06-14T12:26:28.383Z,30.76
2018-06-14T12:28:55.939Z,29.57
2018-06-14T12:31:23.507Z,30.11
2018-06-14T12:33:51.014Z,29.82
2018-06-14T12:36:18.530Z,29.41
2018-06-14T12:38:46.088Z,31.12
2018-06-14T12:41:13.590Z,32.52
2018-06-14T12:43:41.110Z,33.37
2018-06-14T12:46:08.667Z,33.91
2018-06-14T12:48:36.185Z,33.71
2018-06-14T12:51:03.710Z,32.25
2018-06-14T12:53:31.263Z,32.56
2018-06-14T12:55:58.790Z,33.56
2018-06-14T12:58:26.358Z,33.38
2018-06-14T13:00:53.913Z,33.40
2018-06-14T13:03:21.431Z,33.28
2018-06-14T13:05:48.954Z,32.93
2018-06-14T13:08:16.537Z,33.53
2018-06-14T13:10:44.062Z,34.47
2018-06-14T13:13:11.599Z,34.22
2018-06-14T13:15:39.147Z,32.32
2018-06-14T13:18:06.699Z,31.45
2018-06-14T13:20:34.218Z,32.38
2018-06-14T13:23:01.794Z,33.75
2018-06-14T13:25:29.401Z,34.36
2018-06-14T13:27:56.887Z,32.75
2018-06-14T13:30:24.466Z,30.49
2018-06-14T13:32:52.414Z,28.51
2018-06-14T13:35:19.934Z,29.52
2018-06-14T13:37:47.481Z,28.66
2018-06-14T13:40:14.997Z,29.74
2018-06-14T13:42:42.514Z,29.68
2018-06-14T13:45:10.078Z,29.09
2018-06-14T13:47:38.246Z,31.45
2018-06-14T13:50:05.779Z,33.13
2018-06-14T13:52:33.727Z,34.05
2018-06-14T13:55:01.262Z,33.43
2018-06-14T13:57:28.799Z,31.76
2018-06-14T13:59:56.425Z,30.30
2018-06-14T14:02:23.906Z,28.90
2018-06-14T14:04:51.406Z,29.00
2018-06-14T14:07:24.630Z,31.30
2018-06-14T14:09:52.149Z,32.42
2018-06-14T14:12:19.686Z,32.51
2018-06-14T14:14:47.247Z,32.39
2018-06-14T14:17:14.783Z,32.50
2018-06-14T14:19:42.310Z,32.14
2018-06-14T14:22:09.878Z,31.42
2018-06-14T14:24:37.403Z,31.64
2018-06-14T14:27:04.954Z,32.14
2018-06-14T14:29:32.481Z,32.62
2018-06-14T14:32:00.024Z,33.33
2018-06-14T14:34:27.558Z,32.77
2018-06-14T14:36:55.103Z,32.18
2018-06-14T14:39:22.659Z,31.40
2018-06-14T14:41:50.186Z,31.15
2018-06-14T14:44:17.749Z,31.13
2018-06-14T14:46:45.286Z,31.64
2018-06-14T14:49:12.817Z,30.93
2018-06-14T14:51:40.392Z,30.32
2018-06-14T14:54:07.927Z,29.62
2018-06-14T14:56:35.475Z,28.85
2018-06-14T14:59:03.094Z,28.63
2018-06-14T15:01:30.616Z,27.85
2018-06-14T15:03:58.154Z,26.88
2018-06-14T15:06:25.731Z,27.26
2018-06-14T15:08:53.253Z,27.42
2018-06-14T15:11:21.502Z,27.34
2018-06-14T15:13:49.098Z,26.42
2018-06-14T15:16:16.628Z,25.58
2018-06-14T15:18:44.169Z,25.20
2018-06-14T15:21:11.738Z,24.78
2018-06-14T15:23:39.264Z,24.36
2018-06-14T15:26:06.790Z,24.19
2018-06-14T15:28:34.363Z,23.88
2018-06-14T15:31:01.920Z,23.99
2018-06-14T15:33:29.458Z,24.04
2018-06-14T15:35:57.120Z,24.00
2018-06-14T15:38:24.679Z,23.43
2018-06-14T15:40:52.198Z,23.24
2018-06-14T15:43:19.755Z,23.43
2018-06-14T15:45:47.311Z,23.33
2018-06-14T15:48:14.895Z,23.10
2018-06-14T15:50:42.495Z,23.02
2018-06-14T15:53:10.038Z,22.74
2018-06-14T15:56:00.511Z,22.98
2018-06-14T15:58:28.555Z,22.99
2018-06-14T16:00:56.313Z,23.21
2018-06-14T16:03:24.666Z,23.27
2018-06-14T16:05:52.177Z,23.40
2018-06-14T16:08:19.749Z,23.21
2018-06-14T16:10:47.338Z,23.29
2018-06-14T16:13:14.890Z,23.16
2018-06-14T16:15:42.414Z,23.16
2018-06-14T16:18:09.971Z,23.10
2018-06-14T16:20:37.494Z,23.14
2018-06-14T16:23:05.189Z,23.23
2018-06-14T16:25:32.747Z,22.89
2018-06-14T16:28:00.299Z,22.73
2018-06-14T16:30:27.811Z,22.79
2018-06-14T16:32:55.359Z,22.50
2018-06-14T16:35:22.882Z,22.16
2018-06-14T16:37:50.501Z,22.03
2018-06-14T16:40:18.168Z,21.84
2018-06-14T16:42:45.738Z,21.76
2018-06-14T16:45:13.254Z,21.86
2018-06-14T16:47:41.270Z,21.75
2018-06-14T16:50:08.830Z,21.52
2018-06-14T16:52:36.401Z,21.69
2018-06-14T16:55:03.992Z,21.72
2018-06-14T16:57:31.529Z,21.74
2018-06-14T16:59:59.057Z,21.86
2018-06-14T17:02:26.713Z,21.84
2018-06-14T17:04:54.285Z,21.69
2018-06-14T17:07:21.819Z,21.61
2018-06-14T17:09:49.364Z,21.72
2018-06-14T17:12:16.899Z,21.68
2018-06-14T17:14:44.422Z,21.57
2018-06-14T17:17:11.986Z,21.29
2018-06-14T17:19:39.503Z,21.27
2018-06-14T17:22:07.090Z,21.31
2018-06-14T17:24:34.669Z,21.29
2018-06-14T17:27:02.202Z,21.23
2018-06-14T17:29:29.722Z,21.35
2018-06-14T17:31:57.270Z,21.18
2018-06-14T17:34:24.789Z,21.10
2018-06-14T17:36:52.325Z,21.05
2018-06-14T17:39:19.862Z,21.16
2018-06-14T17:41:48.622Z,21.13
2018-06-14T17:44:16.127Z,21.00
2018-06-14T17:46:43.706Z,21.00
2018-06-14T17:49:11.225Z,21.05
2018-06-14T17:51:38.759Z,21.15
2018-06-14T17:54:06.314Z,21.09
2018-06-14T17:56:33.856Z,21.11
2018-06-14T17:59:01.408Z,21.08
2018-06-14T18:01:29.017Z,21.08
2018-06-14T18:03:56.517Z,21.04
2018-06-14T18:06:24.079Z,21.09
2018-06-14T18:08:51.618Z,21.08
2018-06-14T18:11:19.154Z,21.06
2018-06-14T18:13:46.682Z,20.89
2018-06-14T18:16:14.224Z,20.77
2018-06-14T18:18:41.778Z,20.60
2018-06-14T18:21:09.286Z,20.70
2018-06-14T18:23:36.858Z,20.76
2018-06-14T18:26:04.386Z,20.59
2018-06-14T18:28:31.904Z,20.62
2018-06-14T18:30:59.485Z,20.61
2018-06-14T18:33:27.019Z,20.65
2018-06-14T18:35:54.538Z,20.74
2018-06-14T18:38:22.087Z,20.62
2018-06-14T18:40:49.595Z,20.57
2018-06-14T18:43:17.122Z,20.65
2018-06-14T18:45:44.679Z,20.75
2018-06-14T18:48:12.229Z,20.72
2018-06-14T18:50:39.771Z,20.71
2018-06-14T18:53:07.326Z,20.70
2018-06-14T18:55:35.405Z,20.71
2018-06-14T18:58:07.049Z,20.68
2018-06-14T19:00:38.714Z,20.59
2018-06-14T19:03:07.102Z,20.41
2018-06-14T19:05:34.756Z,20.35
2018-06-14T19:08:02.298Z,20.28
2018-06-14T19:10:29.838Z,20.18
2018-06-14T19:12:57.370Z,20.07
2018-06-14T19:15:24.903Z,19.96
2018-06-14T19:17:52.459Z,19.88
2018-06-14T19:20:19.978Z,19.81
2018-06-14T19:22:47.503Z,19.75
2018-06-14T19:25:15.083Z,19.68
2018-06-14T19:27:42.606Z,19.60
2018-06-14T19:30:10.166Z,19.53
2018-06-14T19:32:37.714Z,19.42
2018-06-14T19:35:05.434Z,19.34
2018-06-14T19:37:32.967Z,19.20
2018-06-14T19:40:00.618Z,19.13
2018-06-14T19:42:28.141Z,19.12
2018-06-14T19:44:55.667Z,19.11
2018-06-14T19:47:23.222Z,18.98
2018-06-14T19:49:50.744Z,18.90
2018-06-14T19:52:18.266Z,18.78
2018-06-14T19:54:45.882Z,18.77
2018-06-14T19:57:13.440Z,18.74
2018-06-14T19:59:40.950Z,18.75
2018-06-14T20:02:08.546Z,18.72
2018-06-14T20:04:37.238Z,18.69
2018-06-14T20:07:04.806Z,18.67
2018-06-14T20:09:32.351Z,18.58
2018-06-14T20:11:59.866Z,18.49
2018-06-14T20:14:27.421Z,18.48
2018-06-14T20:16:55.019Z,18.41
2018-06-14T20:19:22.546Z,18.38
2018-06-14T20:21:50.071Z,18.33
2018-06-14T20:24:17.620Z,18.31
2018-06-14T20:26:45.147Z,18.28
2018-06-14T20:29:12.670Z,18.23
2018-06-14T20:31:40.300Z,18.20
2018-06-14T20:34:07.990Z,18.17
2018-06-14T20:36:35.573Z,18.11
2018-06-14T20:39:03.898Z,18.06
2018-06-14T20:41:31.437Z,18.04
2018-06-14T20:43:58.982Z,17.97
2018-06-14T20:46:26.566Z,17.93
2018-06-14T20:48:54.230Z,17.89
2018-06-14T20:51:21.754Z,17.85
2018-06-14T20:53:49.321Z,17.81
2018-06-14T20:56:16.845Z,17.78
2018-06-14T20:58:44.365Z,17.76
2018-06-14T21:01:11.939Z,17.72
2018-06-14T21:03:40.306Z,17.68
2018-06-14T21:06:08.536Z,17.65
2018-06-14T21:08:36.098Z,17.61
2018-06-14T21:11:03.700Z,17.58
2018-06-14T21:13:31.478Z,17.54
2018-06-14T21:15:59.074Z,17.52
2018-06-14T21:18:26.594Z,17.49
2018-06-14T21:20:54.116Z,17.45
2018-06-14T21:23:21.654Z,17.44
2018-06-14T21:25:49.179Z,17.43
2018-06-14T21:28:16.926Z,17.38
2018-06-14T21:30:44.511Z,17.35
2018-06-14T21:33:12.048Z,17.31
2018-06-14T21:35:39.637Z,17.27
2018-06-14T21:38:07.234Z,17.25
2018-06-14T21:40:34.847Z,17.22
2018-06-14T21:43:02.429Z,17.19
2018-06-14T21:45:30.297Z,17.16
2018-06-14T21:47:57.899Z,17.13
2018-06-14T21:50:25.529Z,17.11
2018-06-14T21:52:53.100Z,17.12
2018-06-14T21:55:20.610Z,17.12
2018-06-14T21:57:48.230Z,17.10
2018-06-14T22:00:15.794Z,17.08
2018-06-14T22:02:48.695Z,17.07
2018-06-14T22:05:16.975Z,17.07
2018-06-14T22:07:44.519Z,17.04
2018-06-14T22:10:12.070Z,17.01
2018-06-14T22:12:39.660Z,16.99
2018-06-14T22:15:07.231Z,16.98
2018-06-14T22:17:34.762Z,16.93
2018-06-14T22:20:02.439Z,16.89
2018-06-14T22:22:30.055Z,16.89
2018-06-14T22:24:57.574Z,16.88
2018-06-14T22:27:25.178Z,16.90
2018-06-14T22:29:53.038Z,16.90
2018-06-14T22:32:20.566Z,16.91
2018-06-14T22:34:59.327Z,16.94
2018-06-14T22:37:26.906Z,16.90
2018-06-14T22:39:54.439Z,16.85
2018-06-14T22:42:22.018Z,16.86
2018-06-14T22:44:49.551Z,16.85
2018-06-14T22:47:17.070Z,16.83
2018-06-14T22:49:44.786Z,16.82
2018-06-14T22:53:15.786Z,16.76
2018-06-14T22:55:43.349Z,16.70
2018-06-14T22:58:10.894Z,16.65
2018-06-14T23:01:45.326Z,16.62
2018-06-14T23:04:15.083Z,16.58
2018-06-14T23:06:42.631Z,16.57
2018-06-14T23:10:25.182Z,16.59
2018-06-14T23:12:52.720Z,16.61
2018-06-14T23:15:20.444Z,16.61
2018-06-14T23:17:48.631Z,16.58
2018-06-14T23:20:17.190Z,16.51
2018-06-14T23:22:45.909Z,16.58
2018-06-14T23:25:13.466Z,16.59
2018-06-14T23:27:41.229Z,16.58
2018-06-14T23:30:08.822Z,16.57
2018-06-14T23:32:36.396Z,16.50
2018-06-14T23:35:03.964Z,16.54
2018-06-14T23:37:31.486Z,16.55
2018-06-14T23:39:59.029Z,16.55
2018-06-14T23:42:26.553Z,16.57
2018-06-14T23:44:55.553Z,16.60
2018-06-14T23:47:23.154Z,16.49
2018-06-14T23:49:50.733Z,16.45
2018-06-14T23:52:18.299Z,16.44
2018-06-14T23:54:46.269Z,16.43
2018-06-14T23:57:13.818Z,16.45
2018-06-14T23:59:41.472Z,16.42
